sensor_id;sensor_type;location;lat;lon;timestamp;P1;durP1;ratioP1;P2;durP2;ratioP2
71187;SDS011;58893;53.130;8.158;2022-08-20T00:01:44;10.23;;;6.60;;
71187;SDS011;58893;53.130;8.158;2022-08-20T00:04:11;11.83;;;7.50;;
71187;SDS011;58893;53.130;8.158;2022-08-20T00:06:38;10.57;;;6.97;;
71187;SDS011;58893;53.130;8.158;2022-08-20T00:09:05;10.70;;;6.77;;
71187;SDS011;58893;53.130;8.158;2022-08-20T00:11:31;10.10;;;6.97;;
71187;SDS011;58893;53.130;8.158;2022-08-20T00:13:59;13.87;;;6.43;;
71187;SDS011;58893;53.130;8.158;2022-08-20T00:16:29;10.30;;;7.07;;
71187;SDS011;58893;53.130;8.158;2022-08-20T00:18:59;11.07;;;7.20;;
71187;SDS011;58893;53.130;8.158;2022-08-20T00:21:25;11.93;;;6.60;;
71187;SDS011;58893;53.130;8.158;2022-08-20T00:23:51;12.90;;;7.00;;
71187;SDS011;58893;53.130;8.158;2022-08-20T00:26:19;10.90;;;7.13;;
71187;SDS011;58893;53.130;8.158;2022-08-20T00:28:45;13.00;;;7.80;;
71187;SDS011;58893;53.130;8.158;2022-08-20T00:31:12;12.13;;;6.63;;
71187;SDS011;58893;53.130;8.158;2022-08-20T00:33:41;8.60;;;7.27;;
71187;SDS011;58893;53.130;8.158;2022-08-20T00:36:08;10.53;;;7.23;;
71187;SDS011;58893;53.130;8.158;2022-08-20T00:38:36;12.43;;;6.90;;
71187;SDS011;58893;53.130;8.158;2022-08-20T00:41:05;12.20;;;7.63;;
71187;SDS011;58893;53.130;8.158;2022-08-20T00:43:34;12.40;;;7.33;;
71187;SDS011;58893;53.130;8.158;2022-08-20T00:46:03;10.83;;;7.70;;
71187;SDS011;58893;53.130;8.158;2022-08-20T00:48:31;11.93;;;7.67;;
71187;SDS011;58893;53.130;8.158;2022-08-20T00:51:03;13.27;;;7.73;;
71187;SDS011;58893;53.130;8.158;2022-08-20T00:53:30;12.93;;;7.70;;
71187;SDS011;58893;53.130;8.158;2022-08-20T00:55:56;12.60;;;7.93;;
71187;SDS011;58893;53.130;8.158;2022-08-20T00:58:22;11.50;;;6.90;;
71187;SDS011;58893;53.130;8.158;2022-08-20T01:00:49;11.07;;;6.93;;
71187;SDS011;58893;53.130;8.158;2022-08-20T01:03:16;18.80;;;8.80;;
71187;SDS011;58893;53.130;8.158;2022-08-20T01:05:45;9.20;;;6.80;;
71187;SDS011;58893;53.130;8.158;2022-08-20T01:08:12;11.00;;;7.03;;
71187;SDS011;58893;53.130;8.158;2022-08-20T01:10:41;13.67;;;8.47;;
71187;SDS011;58893;53.130;8.158;2022-08-20T01:13:13;10.63;;;7.27;;
71187;SDS011;58893;53.130;8.158;2022-08-20T01:15:43;13.53;;;8.50;;
71187;SDS011;58893;53.130;8.158;2022-08-20T01:18:12;11.33;;;7.03;;
71187;SDS011;58893;53.130;8.158;2022-08-20T01:20:43;14.53;;;7.70;;
71187;SDS011;58893;53.130;8.158;2022-08-20T01:30:59;12.87;;;8.30;;
71187;SDS011;58893;53.130;8.158;2022-08-20T01:33:24;18.63;;;8.30;;
71187;SDS011;58893;53.130;8.158;2022-08-20T01:35:50;11.97;;;7.97;;
71187;SDS011;58893;53.130;8.158;2022-08-20T01:38:17;12.50;;;6.87;;
71187;SDS011;58893;53.130;8.158;2022-08-20T01:40:49;10.90;;;7.67;;
71187;SDS011;58893;53.130;8.158;2022-08-20T01:43:39;13.57;;;8.17;;
71187;SDS011;58893;53.130;8.158;2022-08-20T01:46:05;12.33;;;8.10;;
71187;SDS011;58893;53.130;8.158;2022-08-20T01:48:34;11.33;;;7.30;;
71187;SDS011;58893;53.130;8.158;2022-08-20T01:51:04;13.37;;;8.30;;
71187;SDS011;58893;53.130;8.158;2022-08-20T01:53:33;15.27;;;8.60;;
71187;SDS011;58893;53.130;8.158;2022-08-20T01:56:02;15.10;;;10.20;;
71187;SDS011;58893;53.130;8.158;2022-08-20T01:58:31;11.67;;;7.90;;
71187;SDS011;58893;53.130;8.158;2022-08-20T02:00:58;13.93;;;9.20;;
71187;SDS011;58893;53.130;8.158;2022-08-20T02:03:24;11.83;;;8.00;;
71187;SDS011;58893;53.130;8.158;2022-08-20T02:05:50;17.83;;;9.73;;
71187;SDS011;58893;53.130;8.158;2022-08-20T02:08:18;15.00;;;9.20;;
71187;SDS011;58893;53.130;8.158;2022-08-20T02:10:47;13.77;;;8.03;;
71187;SDS011;58893;53.130;8.158;2022-08-20T02:13:13;14.70;;;9.40;;
71187;SDS011;58893;53.130;8.158;2022-08-20T02:15:39;20.73;;;9.83;;
71187;SDS011;58893;53.130;8.158;2022-08-20T02:18:05;15.07;;;9.07;;
71187;SDS011;58893;53.130;8.158;2022-08-20T02:20:34;21.10;;;9.20;;
71187;SDS011;58893;53.130;8.158;2022-08-20T02:23:00;17.70;;;10.27;;
71187;SDS011;58893;53.130;8.158;2022-08-20T02:25:28;17.90;;;10.70;;
71187;SDS011;58893;53.130;8.158;2022-08-20T02:27:56;19.03;;;11.17;;
71187;SDS011;58893;53.130;8.158;2022-08-20T02:30:32;14.27;;;9.57;;
71187;SDS011;58893;53.130;8.158;2022-08-20T02:33:02;17.77;;;10.90;;
71187;SDS011;58893;53.130;8.158;2022-08-20T02:35:29;16.77;;;8.73;;
71187;SDS011;58893;53.130;8.158;2022-08-20T02:37:56;16.50;;;10.17;;
71187;SDS011;58893;53.130;8.158;2022-08-20T02:40:23;14.53;;;9.50;;
71187;SDS011;58893;53.130;8.158;2022-08-20T02:42:52;18.73;;;11.30;;
71187;SDS011;58893;53.130;8.158;2022-08-20T02:45:18;18.50;;;11.30;;
71187;SDS011;58893;53.130;8.158;2022-08-20T02:47:44;18.27;;;10.90;;
71187;SDS011;58893;53.130;8.158;2022-08-20T02:50:11;16.97;;;10.70;;
71187;SDS011;58893;53.130;8.158;2022-08-20T02:52:40;16.60;;;9.80;;
71187;SDS011;58893;53.130;8.158;2022-08-20T02:55:06;19.87;;;10.00;;
71187;SDS011;58893;53.130;8.158;2022-08-20T02:57:32;16.80;;;11.07;;
71187;SDS011;58893;53.130;8.158;2022-08-20T02:59:58;21.67;;;11.60;;
71187;SDS011;58893;53.130;8.158;2022-08-20T03:02:26;18.33;;;10.13;;
71187;SDS011;58893;53.130;8.158;2022-08-20T03:04:52;21.60;;;11.10;;
71187;SDS011;58893;53.130;8.158;2022-08-20T03:07:17;17.00;;;11.97;;
71187;SDS011;58893;53.130;8.158;2022-08-20T03:09:43;17.97;;;11.27;;
71187;SDS011;58893;53.130;8.158;2022-08-20T03:12:09;17.83;;;11.73;;
71187;SDS011;58893;53.130;8.158;2022-08-20T03:14:35;19.40;;;11.63;;
71187;SDS011;58893;53.130;8.158;2022-08-20T03:17:01;24.43;;;13.57;;
71187;SDS011;58893;53.130;8.158;2022-08-20T03:19:27;24.30;;;13.73;;
71187;SDS011;58893;53.130;8.158;2022-08-20T03:21:53;26.87;;;12.43;;
71187;SDS011;58893;53.130;8.158;2022-08-20T03:24:19;23.50;;;12.03;;
71187;SDS011;58893;53.130;8.158;2022-08-20T03:26:45;20.93;;;13.20;;
71187;SDS011;58893;53.130;8.158;2022-08-20T03:29:11;24.97;;;13.23;;
71187;SDS011;58893;53.130;8.158;2022-08-20T03:31:37;25.67;;;13.23;;
71187;SDS011;58893;53.130;8.158;2022-08-20T03:34:03;23.93;;;14.30;;
71187;SDS011;58893;53.130;8.158;2022-08-20T03:36:29;21.07;;;12.97;;
71187;SDS011;58893;53.130;8.158;2022-08-20T03:38:56;25.63;;;14.67;;
71187;SDS011;58893;53.130;8.158;2022-08-20T03:41:23;24.27;;;14.60;;
71187;SDS011;58893;53.130;8.158;2022-08-20T03:43:48;26.50;;;14.57;;
71187;SDS011;58893;53.130;8.158;2022-08-20T03:46:14;31.07;;;15.83;;
71187;SDS011;58893;53.130;8.158;2022-08-20T03:48:40;25.27;;;13.93;;
71187;SDS011;58893;53.130;8.158;2022-08-20T03:51:05;27.70;;;15.67;;
71187;SDS011;58893;53.130;8.158;2022-08-20T03:53:31;24.07;;;12.97;;
71187;SDS011;58893;53.130;8.158;2022-08-20T03:55:58;30.13;;;14.43;;
71187;SDS011;58893;53.130;8.158;2022-08-20T03:58:26;24.27;;;14.10;;
71187;SDS011;58893;53.130;8.158;2022-08-20T04:00:52;23.57;;;13.67;;
71187;SDS011;58893;53.130;8.158;2022-08-20T04:03:19;28.90;;;13.80;;
71187;SDS011;58893;53.130;8.158;2022-08-20T04:05:46;23.07;;;13.00;;
71187;SDS011;58893;53.130;8.158;2022-08-20T04:08:18;25.77;;;15.97;;
71187;SDS011;58893;53.130;8.158;2022-08-20T04:10:50;19.13;;;13.33;;
71187;SDS011;58893;53.130;8.158;2022-08-20T04:13:21;22.47;;;13.60;;
71187;SDS011;58893;53.130;8.158;2022-08-20T04:15:48;27.93;;;13.00;;
71187;SDS011;58893;53.130;8.158;2022-08-20T04:18:17;27.57;;;14.47;;
71187;SDS011;58893;53.130;8.158;2022-08-20T04:20:45;20.63;;;12.83;;
71187;SDS011;58893;53.130;8.158;2022-08-20T04:23:11;22.90;;;13.30;;
71187;SDS011;58893;53.130;8.158;2022-08-20T04:25:39;21.50;;;13.43;;
71187;SDS011;58893;53.130;8.158;2022-08-20T04:28:06;22.83;;;12.33;;
71187;SDS011;58893;53.130;8.158;2022-08-20T04:30:34;25.53;;;13.00;;
71187;SDS011;58893;53.130;8.158;2022-08-20T04:33:00;23.33;;;13.70;;
71187;SDS011;58893;53.130;8.158;2022-08-20T04:35:26;22.27;;;12.80;;
71187;SDS011;58893;53.130;8.158;2022-08-20T04:38:00;25.90;;;12.97;;
71187;SDS011;58893;53.130;8.158;2022-08-20T04:40:33;22.27;;;13.50;;
71187;SDS011;58893;53.130;8.158;2022-08-20T04:43:21;21.17;;;13.00;;
71187;SDS011;58893;53.130;8.158;2022-08-20T04:45:49;23.90;;;12.93;;
71187;SDS011;58893;53.130;8.158;2022-08-20T04:48:16;20.10;;;12.70;;
71187;SDS011;58893;53.130;8.158;2022-08-20T04:50:43;20.37;;;11.97;;
71187;SDS011;58893;53.130;8.158;2022-08-20T04:53:11;23.93;;;13.10;;
71187;SDS011;58893;53.130;8.158;2022-08-20T04:55:42;20.53;;;12.10;;
71187;SDS011;58893;53.130;8.158;2022-08-20T04:58:14;19.07;;;11.40;;
71187;SDS011;58893;53.130;8.158;2022-08-20T05:00:46;24.60;;;12.70;;
71187;SDS011;58893;53.130;8.158;2022-08-20T05:03:14;23.40;;;13.47;;
71187;SDS011;58893;53.130;8.158;2022-08-20T05:05:40;21.30;;;12.60;;
71187;SDS011;58893;53.130;8.158;2022-08-20T05:08:06;23.87;;;11.90;;
71187;SDS011;58893;53.130;8.158;2022-08-20T05:10:32;25.53;;;12.33;;
71187;SDS011;58893;53.130;8.158;2022-08-20T05:13:00;20.10;;;10.70;;
71187;SDS011;58893;53.130;8.158;2022-08-20T05:15:26;18.30;;;11.07;;
71187;SDS011;58893;53.130;8.158;2022-08-20T05:17:55;24.37;;;11.67;;
71187;SDS011;58893;53.130;8.158;2022-08-20T05:20:27;16.13;;;10.70;;
71187;SDS011;58893;53.130;8.158;2022-08-20T05:22:55;15.77;;;10.43;;
71187;SDS011;58893;53.130;8.158;2022-08-20T05:25:22;15.20;;;9.10;;
71187;SDS011;58893;53.130;8.158;2022-08-20T05:27:47;18.50;;;9.10;;
71187;SDS011;58893;53.130;8.158;2022-08-20T05:30:13;13.40;;;8.53;;
71187;SDS011;58893;53.130;8.158;2022-08-20T05:32:39;11.50;;;7.40;;
71187;SDS011;58893;53.130;8.158;2022-08-20T05:35:05;12.90;;;7.43;;
71187;SDS011;58893;53.130;8.158;2022-08-20T05:37:37;12.37;;;7.03;;
71187;SDS011;58893;53.130;8.158;2022-08-20T05:40:06;11.67;;;7.00;;
71187;SDS011;58893;53.130;8.158;2022-08-20T05:42:38;9.93;;;7.00;;
71187;SDS011;58893;53.130;8.158;2022-08-20T05:45:04;15.20;;;6.87;;
71187;SDS011;58893;53.130;8.158;2022-08-20T05:47:30;13.53;;;6.20;;
71187;SDS011;58893;53.130;8.158;2022-08-20T05:49:56;12.33;;;7.53;;
71187;SDS011;58893;53.130;8.158;2022-08-20T05:52:22;11.67;;;6.27;;
71187;SDS011;58893;53.130;8.158;2022-08-20T05:54:47;8.63;;;5.63;;
71187;SDS011;58893;53.130;8.158;2022-08-20T05:57:16;11.90;;;6.37;;
71187;SDS011;58893;53.130;8.158;2022-08-20T05:59:43;9.50;;;5.30;;
71187;SDS011;58893;53.130;8.158;2022-08-20T06:02:09;9.13;;;5.53;;
71187;SDS011;58893;53.130;8.158;2022-08-20T06:04:55;8.13;;;5.53;;
71187;SDS011;58893;53.130;8.158;2022-08-20T06:07:21;18.90;;;6.23;;
71187;SDS011;58893;53.130;8.158;2022-08-20T06:09:46;16.43;;;5.90;;
71187;SDS011;58893;53.130;8.158;2022-08-20T06:12:12;11.33;;;4.90;;
71187;SDS011;58893;53.130;8.158;2022-08-20T06:14:38;7.93;;;4.80;;
71187;SDS011;58893;53.130;8.158;2022-08-20T06:17:09;10.23;;;4.23;;
71187;SDS011;58893;53.130;8.158;2022-08-20T06:19:37;9.63;;;5.10;;
71187;SDS011;58893;53.130;8.158;2022-08-20T06:22:04;9.37;;;4.50;;
71187;SDS011;58893;53.130;8.158;2022-08-20T06:24:30;11.43;;;4.90;;
71187;SDS011;58893;53.130;8.158;2022-08-20T06:26:57;14.77;;;4.83;;
71187;SDS011;58893;53.130;8.158;2022-08-20T06:29:25;11.20;;;4.53;;
71187;SDS011;58893;53.130;8.158;2022-08-20T06:31:51;6.87;;;3.63;;
71187;SDS011;58893;53.130;8.158;2022-08-20T06:34:17;8.23;;;4.77;;
71187;SDS011;58893;53.130;8.158;2022-08-20T06:36:43;7.47;;;4.30;;
71187;SDS011;58893;53.130;8.158;2022-08-20T06:39:11;7.33;;;3.93;;
71187;SDS011;58893;53.130;8.158;2022-08-20T06:41:37;9.80;;;4.50;;
71187;SDS011;58893;53.130;8.158;2022-08-20T06:44:03;4.50;;;3.73;;
71187;SDS011;58893;53.130;8.158;2022-08-20T06:46:31;12.60;;;3.87;;
71187;SDS011;58893;53.130;8.158;2022-08-20T06:49:00;10.63;;;4.20;;
71187;SDS011;58893;53.130;8.158;2022-08-20T06:51:27;11.23;;;4.40;;
71187;SDS011;58893;53.130;8.158;2022-08-20T06:53:53;9.57;;;4.07;;
71187;SDS011;58893;53.130;8.158;2022-08-20T06:56:19;12.40;;;4.13;;
71187;SDS011;58893;53.130;8.158;2022-08-20T06:58:45;10.30;;;4.10;;
71187;SDS011;58893;53.130;8.158;2022-08-20T07:01:11;13.40;;;3.40;;
71187;SDS011;58893;53.130;8.158;2022-08-20T07:03:38;7.40;;;3.60;;
71187;SDS011;58893;53.130;8.158;2022-08-20T07:06:05;15.70;;;3.57;;
71187;SDS011;58893;53.130;8.158;2022-08-20T07:08:32;7.87;;;3.43;;
71187;SDS011;58893;53.130;8.158;2022-08-20T07:10:58;6.33;;;2.93;;
71187;SDS011;58893;53.130;8.158;2022-08-20T07:13:23;13.10;;;2.70;;
71187;SDS011;58893;53.130;8.158;2022-08-20T07:15:49;10.80;;;3.17;;
71187;SDS011;58893;53.130;8.158;2022-08-20T07:18:15;7.23;;;3.23;;
71187;SDS011;58893;53.130;8.158;2022-08-20T07:20:41;6.53;;;2.67;;
71187;SDS011;58893;53.130;8.158;2022-08-20T07:23:08;14.07;;;2.63;;
71187;SDS011;58893;53.130;8.158;2022-08-20T07:25:36;7.70;;;2.73;;
71187;SDS011;58893;53.130;8.158;2022-08-20T07:28:05;7.23;;;2.33;;
71187;SDS011;58893;53.130;8.158;2022-08-20T07:30:33;13.73;;;3.07;;
71187;SDS011;58893;53.130;8.158;2022-08-20T07:33:19;9.23;;;2.10;;
71187;SDS011;58893;53.130;8.158;2022-08-20T07:35:45;6.73;;;2.67;;
71187;SDS011;58893;53.130;8.158;2022-08-20T07:38:17;3.63;;;2.07;;
71187;SDS011;58893;53.130;8.158;2022-08-20T07:40:51;14.20;;;2.63;;
71187;SDS011;58893;53.130;8.158;2022-08-20T07:43:19;11.73;;;2.23;;
71187;SDS011;58893;53.130;8.158;2022-08-20T07:45:47;14.43;;;3.03;;
71187;SDS011;58893;53.130;8.158;2022-08-20T07:48:13;11.17;;;2.60;;
71187;SDS011;58893;53.130;8.158;2022-08-20T07:50:39;8.10;;;2.30;;
71187;SDS011;58893;53.130;8.158;2022-08-20T07:53:05;6.87;;;2.03;;
71187;SDS011;58893;53.130;8.158;2022-08-20T07:55:31;3.20;;;1.93;;
71187;SDS011;58893;53.130;8.158;2022-08-20T07:58:04;11.40;;;1.93;;
71187;SDS011;58893;53.130;8.158;2022-08-20T08:00:35;9.10;;;2.47;;
71187;SDS011;58893;53.130;8.158;2022-08-20T08:03:01;9.40;;;2.30;;
71187;SDS011;58893;53.130;8.158;2022-08-20T08:05:28;4.83;;;1.87;;
71187;SDS011;58893;53.130;8.158;2022-08-20T08:07:55;6.00;;;1.70;;
71187;SDS011;58893;53.130;8.158;2022-08-20T08:10:22;13.13;;;2.50;;
71187;SDS011;58893;53.130;8.158;2022-08-20T08:12:49;6.40;;;1.90;;
71187;SDS011;58893;53.130;8.158;2022-08-20T08:15:22;5.07;;;1.83;;
71187;SDS011;58893;53.130;8.158;2022-08-20T08:17:52;16.23;;;2.20;;
71187;SDS011;58893;53.130;8.158;2022-08-20T08:20:19;8.50;;;1.70;;
71187;SDS011;58893;53.130;8.158;2022-08-20T08:22:45;5.83;;;1.87;;
71187;SDS011;58893;53.130;8.158;2022-08-20T08:25:12;7.47;;;2.00;;
71187;SDS011;58893;53.130;8.158;2022-08-20T08:27:40;7.93;;;1.60;;
71187;SDS011;58893;53.130;8.158;2022-08-20T08:30:06;5.33;;;1.40;;
71187;SDS011;58893;53.130;8.158;2022-08-20T08:32:34;5.50;;;1.80;;
71187;SDS011;58893;53.130;8.158;2022-08-20T08:35:05;4.73;;;1.77;;
71187;SDS011;58893;53.130;8.158;2022-08-20T08:37:32;10.93;;;1.60;;
71187;SDS011;58893;53.130;8.158;2022-08-20T08:39:58;3.63;;;1.57;;
71187;SDS011;58893;53.130;8.158;2022-08-20T08:42:27;5.00;;;1.57;;
71187;SDS011;58893;53.130;8.158;2022-08-20T08:45:06;5.97;;;1.57;;
71187;SDS011;58893;53.130;8.158;2022-08-20T08:47:35;6.33;;;1.50;;
71187;SDS011;58893;53.130;8.158;2022-08-20T08:50:03;7.77;;;1.70;;
71187;SDS011;58893;53.130;8.158;2022-08-20T08:52:31;13.40;;;1.83;;
71187;SDS011;58893;53.130;8.158;2022-08-20T08:55:03;7.13;;;1.87;;
71187;SDS011;58893;53.130;8.158;2022-08-20T08:57:30;4.47;;;1.80;;
71187;SDS011;58893;53.130;8.158;2022-08-20T09:00:04;7.97;;;1.43;;
71187;SDS011;58893;53.130;8.158;2022-08-20T09:02:35;3.20;;;1.40;;
71187;SDS011;58893;53.130;8.158;2022-08-20T09:05:04;3.10;;;1.07;;
71187;SDS011;58893;53.130;8.158;2022-08-20T09:07:40;9.60;;;2.03;;
71187;SDS011;58893;53.130;8.158;2022-08-20T09:10:09;9.47;;;1.77;;
71187;SDS011;58893;53.130;8.158;2022-08-20T09:12:35;2.47;;;1.40;;
71187;SDS011;58893;53.130;8.158;2022-08-20T09:15:01;6.50;;;1.60;;
71187;SDS011;58893;53.130;8.158;2022-08-20T09:17:26;5.33;;;1.53;;
71187;SDS011;58893;53.130;8.158;2022-08-20T09:19:52;8.43;;;1.67;;
71187;SDS011;58893;53.130;8.158;2022-08-20T09:22:19;20.30;;;1.60;;
71187;SDS011;58893;53.130;8.158;2022-08-20T09:24:47;1.63;;;0.93;;
71187;SDS011;58893;53.130;8.158;2022-08-20T09:27:14;4.37;;;1.57;;
71187;SDS011;58893;53.130;8.158;2022-08-20T09:29:39;6.30;;;1.17;;
71187;SDS011;58893;53.130;8.158;2022-08-20T09:32:18;10.30;;;2.20;;
71187;SDS011;58893;53.130;8.158;2022-08-20T09:34:46;4.20;;;1.30;;
71187;SDS011;58893;53.130;8.158;2022-08-20T09:37:15;6.20;;;1.77;;
71187;SDS011;58893;53.130;8.158;2022-08-20T09:39:42;7.43;;;1.10;;
71187;SDS011;58893;53.130;8.158;2022-08-20T09:42:14;6.17;;;1.57;;
71187;SDS011;58893;53.130;8.158;2022-08-20T09:44:42;5.33;;;1.20;;
71187;SDS011;58893;53.130;8.158;2022-08-20T09:47:09;2.17;;;1.03;;
71187;SDS011;58893;53.130;8.158;2022-08-20T09:49:35;3.10;;;1.20;;
71187;SDS011;58893;53.130;8.158;2022-08-20T09:52:01;4.10;;;1.50;;
71187;SDS011;58893;53.130;8.158;2022-08-20T09:54:29;2.50;;;1.20;;
71187;SDS011;58893;53.130;8.158;2022-08-20T09:56:57;2.97;;;1.10;;
71187;SDS011;58893;53.130;8.158;2022-08-20T09:59:27;6.30;;;1.10;;
71187;SDS011;58893;53.130;8.158;2022-08-20T10:01:54;6.50;;;1.90;;
71187;SDS011;58893;53.130;8.158;2022-08-20T10:04:20;3.63;;;1.63;;
71187;SDS011;58893;53.130;8.158;2022-08-20T10:06:45;2.33;;;1.40;;
71187;SDS011;58893;53.130;8.158;2022-08-20T10:09:11;2.30;;;1.33;;
71187;SDS011;58893;53.130;8.158;2022-08-20T10:11:37;3.80;;;1.70;;
71187;SDS011;58893;53.130;8.158;2022-08-20T10:14:03;15.10;;;3.07;;
71187;SDS011;58893;53.130;8.158;2022-08-20T10:16:29;2.80;;;1.30;;
71187;SDS011;58893;53.130;8.158;2022-08-20T10:18:55;2.87;;;1.17;;
71187;SDS011;58893;53.130;8.158;2022-08-20T10:21:21;4.53;;;1.30;;
71187;SDS011;58893;53.130;8.158;2022-08-20T10:23:47;3.00;;;1.17;;
71187;SDS011;58893;53.130;8.158;2022-08-20T10:26:14;3.27;;;1.27;;
71187;SDS011;58893;53.130;8.158;2022-08-20T10:28:41;7.80;;;1.00;;
71187;SDS011;58893;53.130;8.158;2022-08-20T10:31:08;3.30;;;1.30;;
71187;SDS011;58893;53.130;8.158;2022-08-20T10:33:36;4.20;;;1.30;;
71187;SDS011;58893;53.130;8.158;2022-08-20T10:36:13;5.73;;;1.30;;
71187;SDS011;58893;53.130;8.158;2022-08-20T10:38:41;7.63;;;1.50;;
71187;SDS011;58893;53.130;8.158;2022-08-20T10:41:08;8.90;;;1.67;;
71187;SDS011;58893;53.130;8.158;2022-08-20T10:43:34;3.67;;;1.23;;
71187;SDS011;58893;53.130;8.158;2022-08-20T10:46:00;4.50;;;1.30;;
71187;SDS011;58893;53.130;8.158;2022-08-20T10:48:26;9.90;;;1.37;;
71187;SDS011;58893;53.130;8.158;2022-08-20T10:50:52;6.97;;;1.70;;
71187;SDS011;58893;53.130;8.158;2022-08-20T10:53:18;5.60;;;1.40;;
71187;SDS011;58893;53.130;8.158;2022-08-20T10:55:43;3.57;;;1.57;;
71187;SDS011;58893;53.130;8.158;2022-08-20T10:58:10;12.93;;;1.67;;
71187;SDS011;58893;53.130;8.158;2022-08-20T11:00:37;3.63;;;1.30;;
71187;SDS011;58893;53.130;8.158;2022-08-20T11:03:03;4.40;;;1.33;;
71187;SDS011;58893;53.130;8.158;2022-08-20T11:05:29;5.93;;;1.20;;
71187;SDS011;58893;53.130;8.158;2022-08-20T11:07:55;3.40;;;1.43;;
71187;SDS011;58893;53.130;8.158;2022-08-20T11:10:22;2.40;;;1.20;;
71187;SDS011;58893;53.130;8.158;2022-08-20T11:12:49;7.70;;;1.60;;
71187;SDS011;58893;53.130;8.158;2022-08-20T11:15:14;4.13;;;1.20;;
71187;SDS011;58893;53.130;8.158;2022-08-20T11:17:41;5.23;;;1.70;;
71187;SDS011;58893;53.130;8.158;2022-08-20T11:20:08;4.87;;;1.13;;
71187;SDS011;58893;53.130;8.158;2022-08-20T11:22:36;1.63;;;1.07;;
71187;SDS011;58893;53.130;8.158;2022-08-20T11:25:02;7.23;;;1.13;;
71187;SDS011;58893;53.130;8.158;2022-08-20T11:27:30;4.67;;;1.43;;
71187;SDS011;58893;53.130;8.158;2022-08-20T11:29:58;8.20;;;1.40;;
71187;SDS011;58893;53.130;8.158;2022-08-20T11:32:24;7.30;;;1.20;;
71187;SDS011;58893;53.130;8.158;2022-08-20T11:34:49;4.40;;;1.23;;
71187;SDS011;58893;53.130;8.158;2022-08-20T11:37:16;8.37;;;1.80;;
71187;SDS011;58893;53.130;8.158;2022-08-20T11:39:43;16.33;;;1.70;;
71187;SDS011;58893;53.130;8.158;2022-08-20T11:42:09;2.30;;;1.27;;
71187;SDS011;58893;53.130;8.158;2022-08-20T11:44:34;6.80;;;1.50;;
71187;SDS011;58893;53.130;8.158;2022-08-20T11:47:01;4.00;;;0.87;;
71187;SDS011;58893;53.130;8.158;2022-08-20T11:49:29;3.20;;;1.33;;
71187;SDS011;58893;53.130;8.158;2022-08-20T11:51:55;8.27;;;1.23;;
71187;SDS011;58893;53.130;8.158;2022-08-20T11:54:21;12.30;;;1.40;;
71187;SDS011;58893;53.130;8.158;2022-08-20T11:56:46;1.97;;;1.20;;
71187;SDS011;58893;53.130;8.158;2022-08-20T11:59:13;4.90;;;1.53;;
71187;SDS011;58893;53.130;8.158;2022-08-20T12:01:39;8.70;;;1.60;;
71187;SDS011;58893;53.130;8.158;2022-08-20T12:04:04;9.50;;;1.40;;
71187;SDS011;58893;53.130;8.158;2022-08-20T12:06:30;1.63;;;0.90;;
71187;SDS011;58893;53.130;8.158;2022-08-20T12:08:56;4.07;;;1.17;;
71187;SDS011;58893;53.130;8.158;2022-08-20T12:11:22;4.50;;;1.40;;
71187;SDS011;58893;53.130;8.158;2022-08-20T12:13:47;7.33;;;1.30;;
71187;SDS011;58893;53.130;8.158;2022-08-20T12:16:13;4.27;;;1.27;;
71187;SDS011;58893;53.130;8.158;2022-08-20T12:18:39;5.73;;;1.30;;
71187;SDS011;58893;53.130;8.158;2022-08-20T12:21:05;7.83;;;2.70;;
71187;SDS011;58893;53.130;8.158;2022-08-20T12:23:30;10.13;;;2.43;;
71187;SDS011;58893;53.130;8.158;2022-08-20T12:25:56;6.67;;;1.90;;
71187;SDS011;58893;53.130;8.158;2022-08-20T12:28:22;5.03;;;1.50;;
71187;SDS011;58893;53.130;8.158;2022-08-20T12:30:47;3.80;;;1.20;;
71187;SDS011;58893;53.130;8.158;2022-08-20T12:33:13;3.07;;;0.90;;
71187;SDS011;58893;53.130;8.158;2022-08-20T12:35:39;3.90;;;1.07;;
71187;SDS011;58893;53.130;8.158;2022-08-20T12:38:04;10.53;;;1.67;;
71187;SDS011;58893;53.130;8.158;2022-08-20T12:40:31;3.03;;;1.30;;
71187;SDS011;58893;53.130;8.158;2022-08-20T12:42:57;3.10;;;1.37;;
71187;SDS011;58893;53.130;8.158;2022-08-20T12:45:23;8.03;;;1.30;;
71187;SDS011;58893;53.130;8.158;2022-08-20T12:47:49;6.60;;;1.53;;
71187;SDS011;58893;53.130;8.158;2022-08-20T12:50:22;2.47;;;1.00;;
71187;SDS011;58893;53.130;8.158;2022-08-20T12:52:49;6.00;;;1.70;;
71187;SDS011;58893;53.130;8.158;2022-08-20T12:55:16;5.70;;;1.57;;
71187;SDS011;58893;53.130;8.158;2022-08-20T12:57:44;3.63;;;1.03;;
71187;SDS011;58893;53.130;8.158;2022-08-20T13:00:20;3.13;;;1.17;;
71187;SDS011;58893;53.130;8.158;2022-08-20T13:02:52;3.53;;;1.73;;
71187;SDS011;58893;53.130;8.158;2022-08-20T13:05:19;3.73;;;1.47;;
71187;SDS011;58893;53.130;8.158;2022-08-20T13:07:45;2.17;;;1.30;;
71187;SDS011;58893;53.130;8.158;2022-08-20T13:10:16;3.50;;;1.73;;
71187;SDS011;58893;53.130;8.158;2022-08-20T13:12:46;6.27;;;2.60;;
71187;SDS011;58893;53.130;8.158;2022-08-20T13:15:12;11.70;;;4.37;;
71187;SDS011;58893;53.130;8.158;2022-08-20T13:17:38;5.13;;;2.60;;
71187;SDS011;58893;53.130;8.158;2022-08-20T13:20:05;6.57;;;2.00;;
71187;SDS011;58893;53.130;8.158;2022-08-20T13:22:33;3.03;;;1.50;;
71187;SDS011;58893;53.130;8.158;2022-08-20T13:24:59;7.57;;;1.50;;
71187;SDS011;58893;53.130;8.158;2022-08-20T13:27:24;4.30;;;1.90;;
71187;SDS011;58893;53.130;8.158;2022-08-20T13:29:51;7.30;;;1.47;;
71187;SDS011;58893;53.130;8.158;2022-08-20T13:32:18;2.40;;;1.40;;
71187;SDS011;58893;53.130;8.158;2022-08-20T13:34:44;3.53;;;1.50;;
71187;SDS011;58893;53.130;8.158;2022-08-20T13:37:14;5.03;;;1.60;;
71187;SDS011;58893;53.130;8.158;2022-08-20T13:39:47;8.17;;;1.20;;
71187;SDS011;58893;53.130;8.158;2022-08-20T13:42:14;3.93;;;1.80;;
71187;SDS011;58893;53.130;8.158;2022-08-20T13:44:40;4.50;;;1.60;;
71187;SDS011;58893;53.130;8.158;2022-08-20T13:47:16;5.07;;;1.30;;
71187;SDS011;58893;53.130;8.158;2022-08-20T13:49:45;8.00;;;1.77;;
71187;SDS011;58893;53.130;8.158;2022-08-20T13:52:12;6.13;;;1.73;;
71187;SDS011;58893;53.130;8.158;2022-08-20T13:54:38;2.43;;;1.10;;
71187;SDS011;58893;53.130;8.158;2022-08-20T13:57:08;8.40;;;1.03;;
71187;SDS011;58893;53.130;8.158;2022-08-20T13:59:39;9.97;;;1.23;;
71187;SDS011;58893;53.130;8.158;2022-08-20T14:02:09;10.27;;;1.53;;
71187;SDS011;58893;53.130;8.158;2022-08-20T14:04:36;3.20;;;1.40;;
71187;SDS011;58893;53.130;8.158;2022-08-20T14:09:36;2.50;;;0.80;;
71187;SDS011;58893;53.130;8.158;2022-08-20T14:12:03;2.40;;;1.20;;
71187;SDS011;58893;53.130;8.158;2022-08-20T14:14:29;4.50;;;1.20;;
71187;SDS011;58893;53.130;8.158;2022-08-20T14:16:54;4.10;;;1.80;;
71187;SDS011;58893;53.130;8.158;2022-08-20T14:19:20;4.00;;;2.20;;
71187;SDS011;58893;53.130;8.158;2022-08-20T14:21:45;7.10;;;1.77;;
71187;SDS011;58893;53.130;8.158;2022-08-20T14:24:11;4.40;;;1.00;;
71187;SDS011;58893;53.130;8.158;2022-08-20T14:26:36;4.13;;;1.50;;
71187;SDS011;58893;53.130;8.158;2022-08-20T14:29:02;4.33;;;2.20;;
71187;SDS011;58893;53.130;8.158;2022-08-20T14:31:28;2.30;;;1.43;;
71187;SDS011;58893;53.130;8.158;2022-08-20T14:33:53;2.13;;;1.00;;
71187;SDS011;58893;53.130;8.158;2022-08-20T14:36:19;2.67;;;1.10;;
71187;SDS011;58893;53.130;8.158;2022-08-20T14:38:44;4.87;;;1.10;;
71187;SDS011;58893;53.130;8.158;2022-08-20T14:41:10;2.97;;;1.40;;
71187;SDS011;58893;53.130;8.158;2022-08-20T14:43:36;8.33;;;1.40;;
71187;SDS011;58893;53.130;8.158;2022-08-20T14:46:01;2.20;;;1.40;;
71187;SDS011;58893;53.130;8.158;2022-08-20T14:48:27;2.60;;;1.27;;
71187;SDS011;58893;53.130;8.158;2022-08-20T14:50:53;4.03;;;1.03;;